Logo AVAMET
Benvolgut visitant, si us plau, ingressa Recuperar contrasenya
AVAMET paisatges

Xàbia Montgó/Castellans

Dades diàries. Acumulats / Últims 30 dies disponibles

Data Temperatura (°C) Humitat rel. (%) Pressió rel. (hPa) Vent (km/h) Precipitació
Mínima Mitjana Màxima Amplitud
tèrmica
Mínima Mitjana Màxima Mínima Mitjana Màxima Predom. Mitjana Ràfega
màxima
Total
(mm)
Índex-n
Mínima Mitjana Màxima Mínima Mitjana Màxima n
0 a 1
P0 max
mm 5'
Dades mensuals acumulades fins l'últim dia disponible
05/2020 13,4 17,2 21,4 20,9 19,4 25,6 30,7 17,3 29 67 95 1.002 1.016 1.028   2,0 43,5 13,2
Dades anuals acumulades fins l'últim dia disponible
2020 6,4 12,6 21,4 15,8 12,1 19,7 30,7 24,3 15 73 97 1.002 1.019 1.034   1,8 51,5 284,0
Últims 30 dies disponibles
27-05-2020 18,8     20,7     23,6 4,8 61 78 88 1.023 1.024 1.026 SO 4,9 27,4 0,0
26-05-2020 18,2     20,7     23,9 5,7 59 74 86 1.023 1.025 1.026 W 3,7 27,4 0,0
25-05-2020 17,3     20,4     25,5 8,2 45 71 89 1.024 1.025 1.027 W 2,1 22,5 0,0
24-05-2020 18,5     21,1     24,5 6,0 66 80 92 1.026 1.026 1.028 W 2,3 24,1 0,0
23-05-2020 18,9     24,0     29,5 10,6 31 50 78 1.022 1.024 1.025 SSW 1,6 17,7 0,0
22-05-2020 18,8     24,1     30,7 11,9 29 57 87 1.020 1.022 1.024 SSW 1,0 17,7 0,0
21-05-2020 19,0     22,7     28,1 9,1 48 70 92 1.016 1.018 1.020 W 1,4 16,1 0,0
20-05-2020 18,7     23,4     29,4 10,7 35 58 75 1.014 1.015 1.016 E 1,9 20,9 0,0
19-05-2020 16,6     22,3     27,6 11,0 40 59 83 1.015 1.017 1.020 SW 0,3 11,3 0,0
18-05-2020 15,4     20,6     26,1 10,7 40 67 84 1.018 1.020 1.022 NW 0,0 6,4 0,0
17-05-2020 15,3     18,2     22,7 7,4 60 76 92 1.018 1.020 1.022 WNW 0,2 9,7 3,2
16-05-2020 14,8     17,1     19,4 4,6 72 83 92 1.014 1.016 1.019 NW 0,5 14,5 0,8
15-05-2020 14,4     17,9     21,4 7,0 55 69 88 1.010 1.012 1.014 WNW 1,8 20,9 0,0
14-05-2020 13,4     16,7     21,2 7,8 47 70 92 1.002 1.005 1.010 SW 1,6 25,7 7,8 0,36 1,10
13-05-2020 16,1     19,3     23,2 7,1 43 59 83 1.005 1.006 1.007 SSW 1,6 27,4 0,0
12-05-2020 17,3     19,9     22,8 5,5 44 65 90 1.005 1.008 1.011 W 2,6 29,0 0,0
11-05-2020 17,6     21,3     25,9 8,3 35 49 58 1.006 1.008 1.011 W 0,8 29,0 0,0
10-05-2020 14,9     19,6     24,8 9,9 34 67 92 1.004 1.006 1.009 W 1,0 35,4 1,4 0,20
09-05-2020 17,3     19,9     24,1 6,8 66 81 92 1.008 1.011 1.015 ESE 1,0 19,3 0,0
08-05-2020 17,8     19,4     23,0 5,2 74 86 93 1.014 1.015 1.017 W 3,1 22,5 0,0
07-05-2020 17,7     19,9     23,7 6,0 50 80 91 1.016 1.017 1.019 W 2,6 29,0 0,0
06-05-2020 17,6     20,9     26,1 8,5 49 72 91 1.014 1.016 1.018 W 1,9 20,9 0,0
05-05-2020 17,2     21,6     28,2 11,0 44 74 91 1.012 1.013 1.015 W 0,5 12,9 0,0
04-05-2020 16,4     20,3     26,5 10,1 54 77 95 1.013 1.015 1.017 W 1,9 17,7 0,0
03-05-2020 17,6     23,4     28,4 10,8 35 56 91 1.015 1.017 1.019 W 2,1 19,3 0,0
02-05-2020 21,4     25,2     29,9 8,5 36 48 59 1.016 1.018 1.019 SW 4,7 40,2 0,0
01-05-2020 17,7     23,9     30,1 12,4 34 47 61 1.015 1.017 1.018 W 6,1 43,5 0,0
30-04-2020 17,8     21,6     25,2 7,4 40 49 63 1.014 1.016 1.017 SO 4,5 38,6 0,0
29-04-2020 16,7     20,1     24,6 7,9 32 47 71 1.015 1.016 1.018 SW 5,3 45,1 0,0
28-04-2020 15,5     18,8     22,8 7,3 39 55 64 1.012 1.014 1.016 W 4,7 41,8 0,0
Últims 13 mesos disponibles
04/2020 10,3 13,3 17,8 15,8 14,7 19,4 25,2 14,9 47 78 95 1.005 1.016 1.026 W 2,2 45,1 65,4
03/2020 8,2 11,8 17,2 14,6 12,1 18,1 24,7 16,5 41 71 94 1.007 1.017 1.026 W 1,9 51,5 77,2
02/2020 8,3 11,7 16,0 15,5 14,1 20,0 26,7 18,4 31 71 89 1.014 1.025 1.033 SW 0,7 37,0 2,8
01/2020 6,4 9,5 14,8 12,5 12,5 16,1 21,7 15,3 48 75 96 1.014 1.025 1.032 NW 2,4 49,9 125,4
12/2019 8,6 12,1 16,6 14,6 13,0 17,8 23,9 15,3 44 71 92 1.004 1.018 1.032 NW 3,6 66,0 172,6
11/2019 7,3 13,2 20,9 16,2 14,3 19,5 27,7 20,4 44 59 81 999 1.011 1.018 W 5,1 64,4 11,4
10/2019 11,7 17,6 21,4 20,8 16,6 24,7 30,5 18,8 43 70 87 1.008 1.016 1.021 SW 2,4 48,3 79,4
09/2019 13,8 20,4 23,4 23,5 22,8 27,1 32,2 18,4 58 78 94 1.009 1.017 1.023 SW 2,5 59,5 184,2
08/2019 19,8 22,8 26,0 26,2 26,6 30,5 36,4 16,6 55 74 84 1.010 1.015 1.019 WNW 3,0 40,2 47,4
07/2019 21,1 23,0 26,1 26,5 28,5 30,9 36,9 15,8 45 70 82 1.005 1.013 1.020 ESE 3,5 41,8 1,6
06/2019 14,7 18,5 23,9 22,3 21,6 26,6 35,6 20,9 46 68 84 1.008 1.015 1.021 WNW 4,3 45,1 1,0
05/2019 11,2 15,1 20,4 18,5 18,8 22,8 29,3 18,1 48 70 83 1.005 1.015 1.024 NW 3,0 51,5 11,6
04/2019 9,1 12,4 14,3 15,4 13,9 19,3 28,1 19,0 38 69 94 999 1.012 1.025 NW 4,0 49,9 377,2
Tots els anys disponibles
2019 5,1 15,5 26,1 18,7 10,3 22,7 36,9 31,8 37 68 94 996 1.017 1.033 NW 3,3 66,0 930,2
2018 3,8 15,5 27,3 18,7 7,8 22,5 36,8 33,0 42 72 94 999 1.017 1.030 W 3,6 61,2 701,8
2017 0,8 15,4 26,4 18,6 8,4 22,5 34,0 33,2 3,6 67,6 588,4
2016 5,6 15,2 26,8 18,3 12,1 21,9 37,7 32,1 4,2 70,8 353,4
2015 3,4 15,8 21,7 18,9 22,1 22,7 37,9 34,5 4,3 66,0 453,6
2014 4,8 18,1 26,5 21,1 11,6 24,8 34,6 29,8 4,9 61,2 222,6
2013
Temperatura (°C)
Humitat relativa (%)
Velocitat del vent i ràfega màxima (km/h)
Direcció del vent (°)
Pressió (hPa)
Precipitació (mm)
Nota sobre les dades: s'avisa a l'usuari de la provisionalitat i no oficialitat d'aquestes dades
Logo AVAMET blanc
Web allotjada a Sollutia
Llicència de Creative CommonsLa web d'AVAMET i els seus continguts estan subjectes a una llicència de
Reconeixement - No Comercial - Compartir igual
Últimes estacions:  Chera (Ajuntament soci), Benifaió (Inforatge), Altea - Com. Regants (Soci) - - -